Time,TemperatureF,DewpointF,PressureIn,WindDirection,WindDirectionDegrees,WindSpeedMPH,WindSpeedGustMPH,Humidity,HourlyPrecipIn,Conditions,Clouds,dailyrainin,SoftwareType,DateUTC
2013-07-31 00:02:00,77.7,30.9,29.83,NW,315,10.0,12.0,18,0.00,,---,0.00,VWS V14.01,2013-07-31 07:02:00,
2013-07-31 00:07:00,77.8,30.9,29.82,WNW,284,7.0,10.0,18,0.00,,---,0.00,VWS V14.01,2013-07-31 07:07:00,
2013-07-31 00:12:00,77.9,31.0,29.83,WSW,258,1.0,9.0,18,0.00,,---,0.00,VWS V14.01,2013-07-31 07:12:00,
2013-07-31 00:17:00,77.9,31.0,29.83,WNW,286,12.0,12.0,18,0.00,,---,0.00,VWS V14.01,2013-07-31 07:17:00,
2013-07-31 00:22:00,78.0,31.1,29.82,NW,326,6.0,11.0,18,0.00,,---,0.00,VWS V14.01,2013-07-31 07:22:00,
2013-07-31 00:27:00,77.9,31.0,29.83,NNW,344,1.0,8.0,18,0.00,,---,0.00,VWS V14.01,2013-07-31 07:27:00,
2013-07-31 00:32:00,77.8,30.9,29.83,WNW,302,4.0,9.0,18,0.00,,---,0.00,VWS V14.01,2013-07-31 07:32:00,
2013-07-31 00:37:00,77.6,30.8,29.83,NW,312,4.0,6.0,18,0.00,,---,0.00,VWS V14.01,2013-07-31 07:37:00,
2013-07-31 00:42:00,77.4,30.6,29.83,NNW,339,1.0,1.0,18,0.00,,---,0.00,VWS V14.01,2013-07-31 07:42:00,
2013-07-31 00:47:00,76.7,31.4,29.83,North,5,1.0,3.0,19,0.00,,---,0.00,VWS V14.01,2013-07-31 07:47:00,
2013-07-31 00:52:00,76.2,31.0,29.83,North,5,0.0,0.0,19,0.00,,---,0.00,VWS V14.01,2013-07-31 07:52:00,
2013-07-31 00:57:00,76.0,32.1,29.83,North,5,0.0,0.0,20,0.00,,---,0.00,VWS V14.01,2013-07-31 07:57:00,
2013-07-31 01:02:00,75.6,33.0,29.83,North,5,0.0,0.0,21,0.00,,---,0.00,VWS V14.01,2013-07-31 08:02:00,
2013-07-31 01:07:00,75.3,32.7,29.83,North,5,1.0,1.0,21,0.00,,---,0.00,VWS V14.01,2013-07-31 08:07:00,
2013-07-31 01:12:00,74.5,33.2,29.83,North,5,0.0,1.0,22,0.00,,---,0.00,VWS V14.01,2013-07-31 08:12:00,
2013-07-31 01:17:00,73.9,32.7,29.83,North,5,1.0,1.0,22,0.00,,---,0.00,VWS V14.01,2013-07-31 08:17:00,
2013-07-31 01:22:00,73.5,32.4,29.83,North,5,0.0,0.0,22,0.00,,---,0.00,VWS V14.01,2013-07-31 08:22:00,
2013-07-31 01:27:00,73.2,33.2,29.83,North,5,0.0,1.0,23,0.00,,---,0.00,VWS V14.01,2013-07-31 08:27:00,
2013-07-31 01:32:00,73.0,33.0,29.83,North,5,0.0,0.0,23,0.00,,---,0.00,VWS V14.01,2013-07-31 08:32:00,
2013-07-31 01:37:00,72.6,33.8,29.83,North,5,0.0,1.0,24,0.00,,---,0.00,VWS V14.01,2013-07-31 08:37:00,
2013-07-31 01:42:00,72.3,33.5,29.83,North,5,0.0,0.0,24,0.00,,---,0.00,VWS V14.01,2013-07-31 08:42:00,
2013-07-31 01:47:00,72.0,33.3,29.83,North,5,0.0,0.0,24,0.00,,---,0.00,VWS V14.01,2013-07-31 08:47:00,
2013-07-31 01:52:00,71.7,33.0,29.83,North,5,0.0,1.0,24,0.00,,---,0.00,VWS V14.01,2013-07-31 08:52:00,
2013-07-31 01:57:00,71.2,32.6,29.82,North,360,2.0,2.0,24,0.00,,---,0.00,VWS V14.01,2013-07-31 08:57:00,
2013-07-31 02:02:00,70.9,32.3,29.83,North,355,0.0,1.0,24,0.00,,---,0.00,VWS V14.01,2013-07-31 09:02:00,
2013-07-31 02:07:00,70.8,32.3,29.82,North,355,0.0,1.0,24,0.00,,---,0.00,VWS V14.01,2013-07-31 09:07:00,
2013-07-31 02:12:00,70.5,33.0,29.82,WNW,297,0.0,1.0,25,0.00,,---,0.00,VWS V14.01,2013-07-31 09:12:00,
2013-07-31 02:17:00,70.2,32.8,29.82,WNW,297,0.0,0.0,25,0.00,,---,0.00,VWS V14.01,2013-07-31 09:17:00,
2013-07-31 02:22:00,69.8,34.3,29.82,WNW,297,0.0,0.0,27,0.00,,---,0.00,VWS V14.01,2013-07-31 09:22:00,
2013-07-31 02:27:00,69.2,34.7,29.82,WNW,297,0.0,0.0,28,0.00,,---,0.00,VWS V14.01,2013-07-31 09:27:00,
2013-07-31 02:32:00,68.8,35.3,29.82,WNW,297,0.0,0.0,29,0.00,,---,0.00,VWS V14.01,2013-07-31 09:32:00,
2013-07-31 02:37:00,68.4,36.6,29.82,WNW,297,0.0,0.0,31,0.00,,---,0.00,VWS V14.01,2013-07-31 09:37:00,
2013-07-31 02:42:00,67.8,36.1,29.82,WNW,297,0.0,0.0,31,0.00,,---,0.00,VWS V14.01,2013-07-31 09:42:00,
2013-07-31 02:47:00,67.7,36.8,29.83,WNW,297,0.0,0.0,32,0.00,,---,0.00,VWS V14.01,2013-07-31 09:47:00,
2013-07-31 02:52:00,67.5,37.4,29.82,WNW,297,0.0,0.0,33,0.00,,---,0.00,VWS V14.01,2013-07-31 09:52:00,
2013-07-31 02:57:00,67.1,37.1,29.82,WNW,297,0.0,0.0,33,0.00,,---,0.00,VWS V14.01,2013-07-31 09:57:00,
2013-07-31 03:02:00,66.8,36.8,29.83,WNW,297,0.0,0.0,33,0.00,,---,0.00,VWS V14.01,2013-07-31 10:02:00,
2013-07-31 03:03:00,66.7,36.7,29.83,WNW,297,0.0,0.0,33,0.00,,---,0.00,VWS V14.01,2013-07-31 10:03:00,
2013-07-31 03:08:00,66.4,36.5,29.83,WNW,297,0.0,0.0,33,0.00,,---,0.00,VWS V14.01,2013-07-31 10:08:00,
2013-07-31 03:13:00,65.9,36.0,29.83,WNW,297,0.0,1.0,33,0.00,,---,0.00,VWS V14.01,2013-07-31 10:13:00,
2013-07-31 03:18:00,65.6,35.0,29.82,WNW,297,0.0,1.0,32,0.00,,---,0.00,VWS V14.01,2013-07-31 10:18:00,
2013-07-31 03:23:00,65.5,34.9,29.83,WNW,297,0.0,0.0,32,0.00,,---,0.00,VWS V14.01,2013-07-31 10:23:00,
2013-07-31 03:28:00,65.6,34.2,29.82,WNW,297,2.0,2.0,31,0.00,,---,0.00,VWS V14.01,2013-07-31 10:28:00,
2013-07-31 03:33:00,65.8,33.5,29.82,WNW,298,0.0,1.0,30,0.00,,---,0.00,VWS V14.01,2013-07-31 10:33:00,
2013-07-31 03:38:00,66.0,33.7,29.82,WNW,298,0.0,1.0,30,0.00,,---,0.00,VWS V14.01,2013-07-31 10:38:00,
2013-07-31 03:43:00,66.2,34.7,29.83,WNW,298,0.0,0.0,31,0.00,,---,0.00,VWS V14.01,2013-07-31 10:43:00,
2013-07-31 03:48:00,66.0,36.1,29.82,WNW,298,0.0,0.0,33,0.00,,---,0.00,VWS V14.01,2013-07-31 10:48:00,
2013-07-31 03:53:00,65.8,36.7,29.82,WNW,298,0.0,0.0,34,0.00,,---,0.00,VWS V14.01,2013-07-31 10:53:00,
2013-07-31 03:58:00,65.8,36.7,29.82,WNW,298,0.0,0.0,34,0.00,,---,0.00,VWS V14.01,2013-07-31 10:58:00,
2013-07-31 04:03:00,65.6,36.5,29.82,WNW,298,0.0,0.0,34,0.00,,---,0.00,VWS V14.01,2013-07-31 11:03:00,
2013-07-31 04:08:00,65.5,35.7,29.82,WNW,298,0.0,0.0,33,0.00,,---,0.00,VWS V14.01,2013-07-31 11:08:00,
2013-07-31 04:13:00,65.4,37.8,29.82,WNW,298,0.0,0.0,36,0.00,,---,0.00,VWS V14.01,2013-07-31 11:13:00,
2013-07-31 04:18:00,65.1,38.2,29.82,WNW,298,0.0,0.0,37,0.00,,---,0.00,VWS V14.01,2013-07-31 11:18:00,
2013-07-31 04:23:00,64.7,37.8,29.82,WNW,298,0.0,1.0,37,0.00,,---,0.00,VWS V14.01,2013-07-31 11:23:00,
2013-07-31 04:28:00,64.2,38.1,29.82,WNW,298,0.0,1.0,38,0.00,,---,0.00,VWS V14.01,2013-07-31 11:28:00,
2013-07-31 04:33:00,64.1,38.0,29.82,WNW,298,0.0,0.0,38,0.00,,---,0.00,VWS V14.01,2013-07-31 11:33:00,
2013-07-31 04:38:00,64.0,37.9,29.82,WNW,298,0.0,0.0,38,0.00,,---,0.00,VWS V14.01,2013-07-31 11:38:00,
2013-07-31 04:43:00,63.9,38.5,29.82,WNW,298,0.0,0.0,39,0.00,,---,0.00,VWS V14.01,2013-07-31 11:43:00,
2013-07-31 04:48:00,63.7,38.3,29.82,WNW,298,0.0,0.0,39,0.00,,---,0.00,VWS V14.01,2013-07-31 11:48:00,
2013-07-31 04:53:00,63.6,38.2,29.82,WNW,298,0.0,0.0,39,0.00,,---,0.00,VWS V14.01,2013-07-31 11:53:00,
2013-07-31 04:58:00,63.3,38.6,29.82,WNW,298,0.0,1.0,40,0.00,,---,0.00,VWS V14.01,2013-07-31 11:58:00,
2013-07-31 05:03:00,63.0,40.2,29.82,WNW,298,0.0,0.0,43,0.00,,---,0.00,VWS V14.01,2013-07-31 12:03:00,
2013-07-31 05:08:00,62.8,38.8,29.82,WNW,298,0.0,2.0,41,0.00,,---,0.00,VWS V14.01,2013-07-31 12:08:00,
2013-07-31 05:13:00,62.4,37.8,29.83,WNW,298,0.0,1.0,40,0.00,,---,0.00,VWS V14.01,2013-07-31 12:13:00,
2013-07-31 05:18:00,62.4,38.4,29.83,WNW,298,0.0,0.0,41,0.00,,---,0.00,VWS V14.01,2013-07-31 12:18:00,
2013-07-31 05:23:00,62.4,38.4,29.83,WNW,298,0.0,0.0,41,0.00,,---,0.00,VWS V14.01,2013-07-31 12:23:00,
2013-07-31 05:28:00,62.2,38.8,29.83,WNW,298,0.0,0.0,42,0.00,,---,0.00,VWS V14.01,2013-07-31 12:28:00,
2013-07-31 05:33:00,62.2,38.2,29.83,WNW,298,0.0,0.0,41,0.00,,---,0.00,VWS V14.01,2013-07-31 12:33:00,
2013-07-31 05:38:00,62.2,38.2,29.83,WNW,298,0.0,0.0,41,0.00,,---,0.00,VWS V14.01,2013-07-31 12:38:00,
2013-07-31 05:43:00,62.1,38.1,29.82,WNW,298,0.0,0.0,41,0.00,,---,0.00,VWS V14.01,2013-07-31 12:43:00,
2013-07-31 05:48:00,62.0,38.7,29.82,WNW,298,0.0,0.0,42,0.00,,---,0.00,VWS V14.01,2013-07-31 12:48:00,
2013-07-31 05:53:00,61.9,38.6,29.83,WNW,298,0.0,0.0,42,0.00,,---,0.00,VWS V14.01,2013-07-31 12:53:00,
2013-07-31 05:58:00,61.5,38.8,29.83,WNW,298,0.0,1.0,43,0.00,,---,0.00,VWS V14.01,2013-07-31 12:58:00,
2013-07-31 06:03:00,61.4,37.5,29.83,WNW,298,0.0,0.0,41,0.00,,---,0.00,VWS V14.01,2013-07-31 13:03:00,
2013-07-31 06:08:00,61.2,38.0,29.83,WNW,298,0.0,0.0,42,0.00,,---,0.00,VWS V14.01,2013-07-31 13:08:00,
2013-07-31 06:13:00,61.1,38.5,29.83,WNW,298,0.0,0.0,43,0.00,,---,0.00,VWS V14.01,2013-07-31 13:13:00,
2013-07-31 06:18:00,61.1,37.9,29.83,WNW,298,0.0,0.0,42,0.00,,---,0.00,VWS V14.01,2013-07-31 13:18:00,
2013-07-31 06:23:00,61.0,37.8,29.83,WNW,298,0.0,0.0,42,0.00,,---,0.00,VWS V14.01,2013-07-31 13:23:00,
2013-07-31 06:28:00,60.9,38.9,29.83,WNW,298,2.0,2.0,44,0.00,,---,0.00,VWS V14.01,2013-07-31 13:28:00,
2013-07-31 06:33:00,60.9,39.4,29.83,WNW,298,0.0,0.0,45,0.00,,---,0.00,VWS V14.01,2013-07-31 13:33:00,
2013-07-31 06:38:00,61.0,40.1,29.84,WNW,298,0.0,0.0,46,0.00,,---,0.00,VWS V14.01,2013-07-31 13:38:00,
2013-07-31 06:43:00,61.1,40.2,29.83,WNW,298,0.0,0.0,46,0.00,,---,0.00,VWS V14.01,2013-07-31 13:43:00,
2013-07-31 06:48:00,61.4,40.5,29.83,WNW,298,0.0,0.0,46,0.00,,---,0.00,VWS V14.01,2013-07-31 13:48:00,
2013-07-31 06:53:00,61.9,39.8,29.83,WNW,298,0.0,0.0,44,0.00,,---,0.00,VWS V14.01,2013-07-31 13:53:00,
2013-07-31 06:58:00,62.5,39.1,29.83,WNW,298,0.0,0.0,42,0.00,,---,0.00,VWS V14.01,2013-07-31 13:58:00,
2013-07-31 07:03:00,63.3,36.6,29.83,WNW,298,0.0,3.0,37,0.00,,---,0.00,VWS V14.01,2013-07-31 14:03:00,
2013-07-31 07:08:00,64.3,36.1,29.83,WNW,298,0.0,1.0,35,0.00,,---,0.00,VWS V14.01,2013-07-31 14:08:00,
2013-07-31 07:13:00,65.2,35.4,29.83,WNW,298,0.0,1.0,33,0.00,,---,0.00,VWS V14.01,2013-07-31 14:13:00,
2013-07-31 07:18:00,66.2,35.5,29.83,WNW,298,0.0,3.0,32,0.00,,---,0.00,VWS V14.01,2013-07-31 14:18:00,
2013-07-31 07:23:00,67.4,35.7,29.83,WNW,298,0.0,3.0,31,0.00,,---,0.00,VWS V14.01,2013-07-31 14:23:00,
2013-07-31 07:28:00,68.5,35.9,29.83,WNW,298,0.0,3.0,30,0.00,,---,0.00,VWS V14.01,2013-07-31 14:28:00,
2013-07-31 07:33:00,69.4,36.7,29.83,WNW,298,1.0,1.0,30,0.00,,---,0.00,VWS V14.01,2013-07-31 14:33:00,
2013-07-31 07:38:00,70.7,36.9,29.83,WNW,289,1.0,5.0,29,0.00,,---,0.00,VWS V14.01,2013-07-31 14:38:00,
2013-07-31 07:43:00,71.8,35.1,29.83,WNW,289,0.0,4.0,26,0.00,,---,0.00,VWS V14.01,2013-07-31 14:43:00,
2013-07-31 07:48:00,72.8,33.9,29.83,WNW,288,2.0,4.0,24,0.00,,---,0.00,VWS V14.01,2013-07-31 14:48:00,
2013-07-31 07:53:00,73.6,34.6,29.82,NW,304,1.0,5.0,24,0.00,,---,0.00,VWS V14.01,2013-07-31 14:53:00,
2013-07-31 07:58:00,74.3,31.9,29.83,WNW,284,2.0,6.0,21,0.00,,---,0.00,VWS V14.01,2013-07-31 14:58:00,
2013-07-31 08:03:00,74.9,31.2,29.82,WNW,287,2.0,6.0,20,0.00,,---,0.00,VWS V14.01,2013-07-31 15:03:00,
2013-07-31 08:08:00,75.6,31.7,29.82,WNW,300,1.0,5.0,20,0.00,,---,0.00,VWS V14.01,2013-07-31 15:08:00,
2013-07-31 08:13:00,76.3,31.0,29.83,WNW,290,4.0,7.0,19,0.00,,---,0.00,VWS V14.01,2013-07-31 15:13:00,
2013-07-31 08:18:00,76.6,31.3,29.83,WSW,256,6.0,7.0,19,0.00,,---,0.00,VWS V14.01,2013-07-31 15:18:00,
2013-07-31 08:23:00,76.9,32.8,29.83,West,266,4.0,6.0,20,0.00,,---,0.00,VWS V14.01,2013-07-31 15:23:00,
2013-07-31 08:28:00,77.5,33.3,29.83,West,275,2.0,3.0,20,0.00,,---,0.00,VWS V14.01,2013-07-31 15:28:00,
2013-07-31 08:33:00,78.3,34.0,29.83,West,275,3.0,5.0,20,0.00,,---,0.00,VWS V14.01,2013-07-31 15:33:00,
2013-07-31 08:38:00,78.9,33.2,29.83,West,281,3.0,4.0,19,0.00,,---,0.00,VWS V14.01,2013-07-31 15:38:00,
2013-07-31 08:43:00,79.5,32.3,29.83,West,259,3.0,4.0,18,0.00,,---,0.00,VWS V14.01,2013-07-31 15:43:00,
2013-07-31 08:48:00,80.1,32.8,29.83,West,263,0.0,6.0,18,0.00,,---,0.00,VWS V14.01,2013-07-31 15:48:00,
2013-07-31 08:53:00,80.4,31.6,29.83,West,261,1.0,5.0,17,0.00,,---,0.00,VWS V14.01,2013-07-31 15:53:00,
2013-07-31 08:58:00,80.8,32.0,29.83,West,279,1.0,6.0,17,0.00,,---,0.00,VWS V14.01,2013-07-31 15:58:00,
2013-07-31 09:03:00,81.5,31.0,29.83,West,273,2.0,7.0,16,0.00,,---,0.00,VWS V14.01,2013-07-31 16:03:00,
2013-07-31 09:08:00,82.2,31.6,29.83,WSW,256,4.0,6.0,16,0.00,,---,0.00,VWS V14.01,2013-07-31 16:08:00,
2013-07-31 09:13:00,82.6,30.3,29.83,West,275,2.0,6.0,15,0.00,,---,0.00,VWS V14.01,2013-07-31 16:13:00,
2013-07-31 09:18:00,83.0,30.6,29.83,West,279,2.0,5.0,15,0.00,,---,0.00,VWS V14.01,2013-07-31 16:18:00,
2013-07-31 09:23:00,83.6,31.1,29.82,West,268,3.0,5.0,15,0.00,,---,0.00,VWS V14.01,2013-07-31 16:23:00,
2013-07-31 09:28:00,84.0,29.7,29.82,WNW,288,2.0,4.0,14,0.00,,---,0.00,VWS V14.01,2013-07-31 16:28:00,
2013-07-31 09:33:00,84.4,28.2,29.82,West,263,4.0,8.0,13,0.00,,---,0.00,VWS V14.01,2013-07-31 16:33:00,
2013-07-31 09:38:00,84.6,28.4,29.82,NW,315,3.0,4.0,13,0.00,,---,0.00,VWS V14.01,2013-07-31 16:38:00,
2013-07-31 09:43:00,84.3,28.2,29.82,WNW,285,2.0,4.0,13,0.00,,---,0.00,VWS V14.01,2013-07-31 16:43:00,
2013-07-31 09:48:00,84.6,28.4,29.82,WNW,286,1.0,5.0,13,0.00,,---,0.00,VWS V14.01,2013-07-31 16:48:00,
2013-07-31 09:53:00,84.9,26.7,29.82,WNW,286,0.0,3.0,12,0.00,,---,0.00,VWS V14.01,2013-07-31 16:53:00,
2013-07-31 09:58:00,84.8,26.6,29.82,SSW,194,3.0,6.0,12,0.00,,---,0.00,VWS V14.01,2013-07-31 16:58:00,
2013-07-31 10:03:00,84.5,28.3,29.82,SSW,194,2.0,2.0,13,0.00,,---,0.00,VWS V14.01,2013-07-31 17:03:00,
2013-07-31 10:08:00,85.1,28.8,29.82,WSW,247,3.0,6.0,13,0.00,,---,0.00,VWS V14.01,2013-07-31 17:08:00,
2013-07-31 10:13:00,85.2,28.9,29.82,SW,219,1.0,4.0,13,0.00,,---,0.00,VWS V14.01,2013-07-31 17:13:00,
2013-07-31 10:18:00,85.8,29.3,29.82,SW,227,4.0,5.0,13,0.00,,---,0.00,VWS V14.01,2013-07-31 17:18:00,
2013-07-31 10:23:00,86.2,29.6,29.82,SW,225,1.0,4.0,13,0.00,,---,0.00,VWS V14.01,2013-07-31 17:23:00,
2013-07-31 10:28:00,86.7,30.0,29.82,NW,319,3.0,6.0,13,0.00,,---,0.00,VWS V14.01,2013-07-31 17:28:00,
2013-07-31 10:33:00,86.3,29.7,29.82,NW,304,3.0,5.0,13,0.00,,---,0.00,VWS V14.01,2013-07-31 17:33:00,
2013-07-31 10:38:00,86.2,31.5,29.82,WNW,290,2.0,4.0,14,0.00,,---,0.00,VWS V14.01,2013-07-31 17:38:00,
2013-07-31 10:43:00,87.0,30.3,29.81,WNW,294,3.0,6.0,13,0.00,,---,0.00,VWS V14.01,2013-07-31 17:43:00,
2013-07-31 10:48:00,87.1,30.4,29.81,NNE,22,1.0,6.0,13,0.00,,---,0.00,VWS V14.01,2013-07-31 17:48:00,
2013-07-31 10:53:00,87.1,30.4,29.81,NW,308,0.0,2.0,13,0.00,,---,0.00,VWS V14.01,2013-07-31 17:53:00,
2013-07-31 10:58:00,87.2,30.4,29.81,WSW,251,0.0,4.0,13,0.00,,---,0.00,VWS V14.01,2013-07-31 17:58:00,
2013-07-31 11:03:00,87.1,32.2,29.80,SE,146,4.0,5.0,14,0.00,,---,0.00,VWS V14.01,2013-07-31 18:03:00,
2013-07-31 11:08:00,87.6,32.6,29.80,SSW,211,2.0,7.0,14,0.00,,---,0.00,VWS V14.01,2013-07-31 18:08:00,
2013-07-31 11:13:00,87.2,30.4,29.80,South,180,0.0,4.0,13,0.00,,---,0.00,VWS V14.01,2013-07-31 18:13:00,
2013-07-31 11:18:00,88.1,31.1,29.80,South,175,1.0,5.0,13,0.00,,---,0.00,VWS V14.01,2013-07-31 18:18:00,
2013-07-31 11:23:00,88.2,33.0,29.80,SSE,158,2.0,4.0,14,0.00,,---,0.00,VWS V14.01,2013-07-31 18:23:00,
2013-07-31 11:28:00,89.3,32.1,29.80,SE,146,2.0,5.0,13,0.00,,---,0.00,VWS V14.01,2013-07-31 18:28:00,
2013-07-31 11:33:00,89.1,31.9,29.79,SSE,164,4.0,7.0,13,0.00,,---,0.00,VWS V14.01,2013-07-31 18:33:00,
2013-07-31 11:38:00,88.5,33.3,29.79,South,169,3.0,6.0,14,0.00,,---,0.00,VWS V14.01,2013-07-31 18:38:00,
2013-07-31 11:43:00,88.3,33.1,29.79,South,175,1.0,9.0,14,0.00,,---,0.00,VWS V14.01,2013-07-31 18:43:00,
2013-07-31 11:48:00,88.7,33.4,29.79,SSE,165,0.0,3.0,14,0.00,,---,0.00,VWS V14.01,2013-07-31 18:48:00,
2013-07-31 11:53:00,89.2,33.8,29.78,South,182,0.0,6.0,14,0.00,,---,0.00,VWS V14.01,2013-07-31 18:53:00,
2013-07-31 11:58:00,89.4,35.7,29.78,SSE,168,4.0,4.0,15,0.00,,---,0.00,VWS V14.01,2013-07-31 18:58:00,
2013-07-31 12:03:00,89.9,34.4,29.78,South,176,2.0,5.0,14,0.00,,---,0.00,VWS V14.01,2013-07-31 19:03:00,
2013-07-31 12:08:00,90.0,32.6,29.78,South,177,1.0,5.0,13,0.00,,---,0.00,VWS V14.01,2013-07-31 19:08:00,
2013-07-31 12:12:00,90.6,34.9,29.77,East,81,0.0,5.0,14,0.00,,---,0.00,VWS V14.01,2013-07-31 19:12:00,
2013-07-31 12:17:00,91.0,35.2,29.77,ENE,78,1.0,4.0,14,0.00,,---,0.00,VWS V14.01,2013-07-31 19:17:00,
2013-07-31 12:22:00,91.2,35.4,29.77,ESE,107,4.0,6.0,14,0.00,,---,0.00,VWS V14.01,2013-07-31 19:22:00,
2013-07-31 12:27:00,91.6,35.7,29.77,SSE,163,2.0,3.0,14,0.00,,---,0.00,VWS V14.01,2013-07-31 19:27:00,
2013-07-31 12:32:00,91.1,33.5,29.76,SSW,205,1.0,3.0,13,0.00,,---,0.00,VWS V14.01,2013-07-31 19:32:00,
2013-07-31 12:37:00,91.6,35.7,29.76,SSW,202,6.0,7.0,14,0.00,,---,0.00,VWS V14.01,2013-07-31 19:37:00,
2013-07-31 12:42:00,91.0,35.2,29.76,SE,136,0.0,6.0,14,0.00,,---,0.00,VWS V14.01,2013-07-31 19:42:00,
2013-07-31 12:47:00,91.8,35.9,29.76,East,82,6.0,8.0,14,0.00,,---,0.00,VWS V14.01,2013-07-31 19:47:00,
2013-07-31 12:52:00,92.0,34.2,29.75,SE,132,6.0,8.0,13,0.00,,---,0.00,VWS V14.01,2013-07-31 19:52:00,
2013-07-31 12:57:00,92.1,36.1,29.75,SE,127,5.0,10.0,14,0.00,,---,0.00,VWS V14.01,2013-07-31 19:57:00,
2013-07-31 13:02:00,92.7,36.6,29.75,ESE,104,1.0,4.0,14,0.00,,---,0.00,VWS V14.01,2013-07-31 20:02:00,
2013-07-31 13:07:00,92.6,34.6,29.75,South,171,3.0,6.0,13,0.00,,---,0.00,VWS V14.01,2013-07-31 20:07:00,
2013-07-31 13:12:00,91.4,33.7,29.75,South,171,4.0,9.0,13,0.00,,---,0.00,VWS V14.01,2013-07-31 20:12:00,
2013-07-31 13:17:00,91.1,35.3,29.75,South,176,3.0,7.0,14,0.00,,---,0.00,VWS V14.01,2013-07-31 20:17:00,
2013-07-31 13:22:00,91.3,37.2,29.74,South,182,9.0,9.0,15,0.00,,---,0.00,VWS V14.01,2013-07-31 20:22:00,
2013-07-31 13:28:00,91.2,35.4,29.74,SSE,152,7.0,12.0,14,0.00,,---,0.00,VWS V14.01,2013-07-31 20:28:00,
2013-07-31 13:33:00,91.4,37.3,29.74,ESE,104,4.0,7.0,15,0.00,,---,0.00,VWS V14.01,2013-07-31 20:33:00,
2013-07-31 13:38:00,92.4,36.3,29.73,SSE,159,5.0,9.0,14,0.00,,---,0.00,VWS V14.01,2013-07-31 20:38:00,
2013-07-31 13:42:00,92.7,34.7,29.73,NE,46,10.0,10.0,13,0.00,,---,0.00,VWS V14.01,2013-07-31 20:42:00,
2013-07-31 13:47:00,92.0,34.2,29.73,ENE,76,0.0,9.0,13,0.00,,---,0.00,VWS V14.01,2013-07-31 20:47:00,
2013-07-31 13:52:00,92.4,34.5,29.73,SSW,192,6.0,8.0,13,0.00,,---,0.00,VWS V14.01,2013-07-31 20:52:00,
2013-07-31 13:57:00,91.5,33.8,29.73,WSW,255,2.0,5.0,13,0.00,,---,0.00,VWS V14.01,2013-07-31 20:57:00,
2013-07-31 14:02:00,92.1,34.2,29.72,NNW,329,2.0,7.0,13,0.00,,---,0.00,VWS V14.01,2013-07-31 21:02:00,
2013-07-31 14:07:00,92.4,36.3,29.72,ESE,123,5.0,11.0,14,0.00,,---,0.00,VWS V14.01,2013-07-31 21:07:00,
2013-07-31 14:12:00,93.1,33.0,29.72,SE,142,3.0,6.0,12,0.00,,---,0.00,VWS V14.01,2013-07-31 21:12:00,
2013-07-31 14:17:00,93.6,33.4,29.72,SE,144,1.0,2.0,12,0.00,,---,0.00,VWS V14.01,2013-07-31 21:17:00,
2013-07-31 14:22:00,93.1,35.0,29.71,SE,136,3.0,5.0,13,0.00,,---,0.00,VWS V14.01,2013-07-31 21:22:00,
2013-07-31 14:27:00,92.9,32.9,29.71,ESE,108,2.0,7.0,12,0.00,,---,0.00,VWS V14.01,2013-07-31 21:27:00,
2013-07-31 14:32:00,93.7,33.5,29.71,ESE,122,0.0,3.0,12,0.00,,---,0.00,VWS V14.01,2013-07-31 21:32:00,
2013-07-31 14:37:00,93.9,33.6,29.70,NE,36,0.0,5.0,12,0.00,,---,0.00,VWS V14.01,2013-07-31 21:37:00,
2013-07-31 14:42:00,93.4,35.3,29.70,ESE,113,7.0,7.0,13,0.00,,---,0.00,VWS V14.01,2013-07-31 21:42:00,
2013-07-31 14:47:00,93.4,33.3,29.70,ESE,119,0.0,5.0,12,0.00,,---,0.00,VWS V14.01,2013-07-31 21:47:00,
2013-07-31 14:52:00,93.9,33.6,29.70,NE,55,6.0,9.0,12,0.00,,---,0.00,VWS V14.01,2013-07-31 21:52:00,
2013-07-31 14:57:00,93.6,33.4,29.69,North,355,0.0,3.0,12,0.00,,---,0.00,VWS V14.01,2013-07-31 21:57:00,
2013-07-31 15:02:00,91.9,34.1,29.70,SSW,209,3.0,6.0,13,0.00,,---,0.00,VWS V14.01,2013-07-31 22:02:00,
2013-07-31 15:07:00,92.6,32.6,29.69,SW,234,2.0,6.0,12,0.00,,---,0.00,VWS V14.01,2013-07-31 22:07:00,
2013-07-31 15:12:00,93.6,33.4,29.69,South,174,0.0,2.0,12,0.00,,---,0.00,VWS V14.01,2013-07-31 22:12:00,
2013-07-31 15:17:00,93.5,33.3,29.69,SSE,153,3.0,8.0,12,0.00,,---,0.00,VWS V14.01,2013-07-31 22:17:00,
2013-07-31 15:22:00,93.8,33.6,29.69,SSE,151,2.0,8.0,12,0.00,,---,0.00,VWS V14.01,2013-07-31 22:22:00,
2013-07-31 15:27:00,92.8,34.8,29.68,SSW,206,10.0,10.0,13,0.00,,---,0.00,VWS V14.01,2013-07-31 22:27:00,
2013-07-31 15:32:00,91.9,34.1,29.68,South,181,0.0,6.0,13,0.00,,---,0.00,VWS V14.01,2013-07-31 22:32:00,
2013-07-31 15:37:00,92.3,34.4,29.68,West,274,2.0,4.0,13,0.00,,---,0.00,VWS V14.01,2013-07-31 22:37:00,
2013-07-31 15:42:00,92.5,32.6,29.68,NNW,336,2.0,4.0,12,0.00,,---,0.00,VWS V14.01,2013-07-31 22:42:00,
2013-07-31 15:47:00,92.6,32.6,29.68,SSW,213,1.0,7.0,12,0.00,,---,0.00,VWS V14.01,2013-07-31 22:47:00,
2013-07-31 15:52:00,93.4,33.3,29.67,SW,224,1.0,4.0,12,0.00,,---,0.00,VWS V14.01,2013-07-31 22:52:00,
2013-07-31 15:57:00,93.4,33.3,29.67,SW,219,0.0,5.0,12,0.00,,---,0.00,VWS V14.01,2013-07-31 22:57:00,
2013-07-31 16:02:00,93.6,33.4,29.67,SSE,157,2.0,2.0,12,0.00,,---,0.00,VWS V14.01,2013-07-31 23:02:00,
2013-07-31 16:07:00,92.8,32.8,29.66,SSE,156,2.0,4.0,12,0.00,,---,0.00,VWS V14.01,2013-07-31 23:07:00,
2013-07-31 16:12:00,93.3,33.2,29.66,West,259,0.0,6.0,12,0.00,,---,0.00,VWS V14.01,2013-07-31 23:12:00,
2013-07-31 16:17:00,94.0,33.7,29.66,East,88,0.0,1.0,12,0.00,,---,0.00,VWS V14.01,2013-07-31 23:17:00,
2013-07-31 16:22:00,94.2,33.9,29.66,SW,232,2.0,6.0,12,0.00,,---,0.00,VWS V14.01,2013-07-31 23:22:00,
2013-07-31 16:27:00,93.5,33.3,29.66,WSW,242,0.0,4.0,12,0.00,,---,0.00,VWS V14.01,2013-07-31 23:27:00,
2013-07-31 16:32:00,93.8,33.6,29.66,SSE,162,4.0,7.0,12,0.00,,---,0.00,VWS V14.01,2013-07-31 23:32:00,
2013-07-31 16:37:00,93.7,33.5,29.65,WSW,242,2.0,6.0,12,0.00,,---,0.00,VWS V14.01,2013-07-31 23:37:00,
2013-07-31 16:42:00,94.3,34.0,29.65,NNE,13,3.0,7.0,12,0.00,,---,0.00,VWS V14.01,2013-07-31 23:42:00,
2013-07-31 16:47:00,94.3,34.0,29.65,WNW,296,6.0,8.0,12,0.00,,---,0.00,VWS V14.01,2013-07-31 23:47:00,
2013-07-31 16:52:00,94.6,34.2,29.65,NW,304,7.0,13.0,12,0.00,,---,0.00,VWS V14.01,2013-07-31 23:52:00,
2013-07-31 16:57:00,94.2,33.9,29.65,West,277,4.0,12.0,12,0.00,,---,0.00,VWS V14.01,2013-07-31 23:57:00,
2013-07-31 17:02:00,93.9,31.5,29.65,WSW,258,6.0,12.0,11,0.00,,---,0.00,VWS V14.01,2013-08-01 00:02:00,
2013-07-31 17:07:00,93.9,31.5,29.64,WSW,244,3.0,13.0,11,0.00,,---,0.00,VWS V14.01,2013-08-01 00:07:00,
2013-07-31 17:12:00,93.8,33.6,29.64,WSW,257,4.0,12.0,12,0.00,,---,0.00,VWS V14.01,2013-08-01 00:12:00,
2013-07-31 17:17:00,94.0,33.7,29.64,WNW,284,10.0,10.0,12,0.00,,---,0.00,VWS V14.01,2013-08-01 00:17:00,
2013-07-31 17:22:00,93.8,33.6,29.64,WSW,242,7.0,9.0,12,0.00,,---,0.00,VWS V14.01,2013-08-01 00:22:00,
2013-07-31 17:27:00,93.6,35.4,29.64,NW,315,4.0,9.0,13,0.00,,---,0.00,VWS V14.01,2013-08-01 00:27:00,
2013-07-31 17:32:00,93.4,33.3,29.64,WNW,291,10.0,10.0,12,0.00,,---,0.00,VWS V14.01,2013-08-01 00:32:00,
2013-07-31 17:37:00,93.4,33.3,29.64,WNW,288,6.0,13.0,12,0.00,,---,0.00,VWS V14.01,2013-08-01 00:37:00,
2013-07-31 17:42:00,92.8,32.8,29.63,NNW,327,6.0,17.0,12,0.00,,---,0.00,VWS V14.01,2013-08-01 00:42:00,
2013-07-31 17:47:00,92.3,32.4,29.64,NW,313,9.0,12.0,12,0.00,,---,0.00,VWS V14.01,2013-08-01 00:47:00,
2013-07-31 17:52:00,91.8,32.0,29.63,NW,311,9.0,11.0,12,0.00,,---,0.00,VWS V14.01,2013-08-01 00:52:00,
2013-07-31 17:58:00,91.6,31.9,29.63,WNW,294,6.0,14.0,12,0.00,,---,0.00,VWS V14.01,2013-08-01 00:58:00,
2013-07-31 18:02:00,91.3,31.6,29.63,WSW,253,6.0,10.0,12,0.00,,---,0.00,VWS V14.01,2013-08-01 01:02:00,
2013-07-31 18:07:00,91.3,33.6,29.63,NW,316,10.0,14.0,13,0.00,,---,0.00,VWS V14.01,2013-08-01 01:07:00,
2013-07-31 18:12:00,90.9,33.3,29.63,West,280,7.0,13.0,13,0.00,,---,0.00,VWS V14.01,2013-08-01 01:12:00,
2013-07-31 18:17:00,90.4,32.9,29.63,WNW,302,9.0,18.0,13,0.00,,---,0.00,VWS V14.01,2013-08-01 01:17:00,
2013-07-31 18:22:00,90.1,32.7,29.64,WNW,290,3.0,11.0,13,0.00,,---,0.00,VWS V14.01,2013-08-01 01:22:00,
2013-07-31 18:28:00,90.1,34.5,29.64,West,264,8.0,11.0,14,0.00,,---,0.00,VWS V14.01,2013-08-01 01:28:00,
2013-07-31 18:32:00,89.9,34.4,29.64,WNW,300,13.0,13.0,14,0.00,,---,0.00,VWS V14.01,2013-08-01 01:32:00,
2013-07-31 18:38:00,89.6,32.3,29.64,West,279,13.0,14.0,13,0.00,,---,0.00,VWS V14.01,2013-08-01 01:38:00,
2013-07-31 18:43:00,89.0,33.7,29.64,WSW,255,9.0,16.0,14,0.00,,---,0.00,VWS V14.01,2013-08-01 01:43:00,
2013-07-31 18:48:00,88.6,33.4,29.64,NW,304,12.0,14.0,14,0.00,,---,0.00,VWS V14.01,2013-08-01 01:48:00,
2013-07-31 18:52:00,88.3,34.8,29.64,West,271,6.0,10.0,15,0.00,,---,0.00,VWS V14.01,2013-08-01 01:52:00,
2013-07-31 18:57:00,87.9,32.8,29.64,West,265,8.0,12.0,14,0.00,,---,0.00,VWS V14.01,2013-08-01 01:57:00,
2013-07-31 19:02:00,87.6,34.3,29.64,WNW,291,8.0,12.0,15,0.00,,---,0.00,VWS V14.01,2013-08-01 02:02:00,
2013-07-31 19:07:00,87.2,34.0,29.65,West,271,5.0,15.0,15,0.00,,---,0.00,VWS V14.01,2013-08-01 02:07:00,
2013-07-31 19:12:00,86.7,33.6,29.65,WNW,282,13.0,15.0,15,0.00,,---,0.00,VWS V14.01,2013-08-01 02:12:00,
2013-07-31 19:18:00,86.2,34.8,29.65,West,276,8.0,12.0,16,0.00,,---,0.00,VWS V14.01,2013-08-01 02:18:00,
2013-07-31 19:23:00,85.6,32.7,29.65,WNW,291,6.0,12.0,15,0.00,,---,0.00,VWS V14.01,2013-08-01 02:23:00,
2013-07-31 19:28:00,85.5,32.6,29.65,WSW,253,5.0,9.0,15,0.00,,---,0.00,VWS V14.01,2013-08-01 02:28:00,
2013-07-31 19:33:00,85.1,30.6,29.65,West,269,12.0,12.0,14,0.00,,---,0.00,VWS V14.01,2013-08-01 02:33:00,
2013-07-31 19:38:00,84.7,32.0,29.66,West,273,7.0,15.0,15,0.00,,---,0.00,VWS V14.01,2013-08-01 02:38:00,
2013-07-31 19:43:00,84.2,33.2,29.66,WNW,290,4.0,10.0,16,0.00,,---,0.00,VWS V14.01,2013-08-01 02:43:00,
2013-07-31 19:48:00,83.7,32.8,29.66,West,270,8.0,13.0,16,0.00,,---,0.00,VWS V14.01,2013-08-01 02:48:00,
2013-07-31 19:53:00,83.2,32.4,29.66,West,264,8.0,15.0,16,0.00,,---,0.00,VWS V14.01,2013-08-01 02:53:00,
2013-07-31 19:58:00,82.8,32.1,29.66,WSW,251,10.0,13.0,16,0.00,,---,0.00,VWS V14.01,2013-08-01 02:58:00,
2013-07-31 20:03:00,82.5,31.8,29.66,West,262,13.0,18.0,16,0.00,,---,0.00,VWS V14.01,2013-08-01 03:03:00,
2013-07-31 20:08:00,82.3,31.7,29.66,WNW,292,4.0,9.0,16,0.00,,---,0.00,VWS V14.01,2013-08-01 03:08:00,
2013-07-31 20:13:00,81.9,31.4,29.66,West,260,5.0,10.0,16,0.00,,---,0.00,VWS V14.01,2013-08-01 03:13:00,
2013-07-31 20:18:00,81.4,31.0,29.66,WNW,298,6.0,14.0,16,0.00,,---,0.00,VWS V14.01,2013-08-01 03:18:00,
2013-07-31 20:23:00,81.2,29.2,29.67,WNW,284,3.0,10.0,15,0.00,,---,0.00,VWS V14.01,2013-08-01 03:23:00,
2013-07-31 20:28:00,81.0,29.0,29.67,WNW,302,3.0,11.0,15,0.00,,---,0.00,VWS V14.01,2013-08-01 03:28:00,
2013-07-31 20:33:00,80.8,28.9,29.67,NW,316,5.0,10.0,15,0.00,,---,0.00,VWS V14.01,2013-08-01 03:33:00,
2013-07-31 20:38:00,80.6,28.7,29.67,NW,304,0.0,5.0,15,0.00,,---,0.00,VWS V14.01,2013-08-01 03:38:00,
2013-07-31 20:43:00,80.3,28.5,29.68,NW,321,5.0,6.0,15,0.00,,---,0.00,VWS V14.01,2013-08-01 03:43:00,
2013-07-31 20:48:00,80.1,28.3,29.68,NNW,347,6.0,12.0,15,0.00,,---,0.00,VWS V14.01,2013-08-01 03:48:00,
2013-07-31 20:53:00,80.0,28.2,29.68,NW,315,5.0,11.0,15,0.00,,---,0.00,VWS V14.01,2013-08-01 03:53:00,
2013-07-31 20:58:00,79.8,28.1,29.68,NW,311,6.0,12.0,15,0.00,,---,0.00,VWS V14.01,2013-08-01 03:58:00,
2013-07-31 21:01:00,79.8,28.1,29.68,WNW,302,9.0,9.0,15,0.00,,---,0.00,VWS V14.01,2013-08-01 04:01:00,
2013-07-31 21:02:00,79.7,28.0,29.68,WNW,293,7.0,15.0,15,0.00,,---,0.00,VWS V14.01,2013-08-01 04:02:00,
2013-07-31 21:07:00,79.7,28.0,29.68,WNW,303,10.0,12.0,15,0.00,,---,0.00,VWS V14.01,2013-08-01 04:07:00,
2013-07-31 21:12:00,79.4,27.8,29.68,West,271,12.0,12.0,15,0.00,,---,0.00,VWS V14.01,2013-08-01 04:12:00,
2013-07-31 21:17:00,79.2,27.6,29.69,WNW,294,13.0,14.0,15,0.00,,---,0.00,VWS V14.01,2013-08-01 04:17:00,
2013-07-31 21:22:00,78.8,27.3,29.69,WNW,296,1.0,7.0,15,0.00,,---,0.00,VWS V14.01,2013-08-01 04:22:00,
2013-07-31 21:27:00,78.4,28.5,29.70,NW,317,6.0,10.0,16,0.00,,---,0.00,VWS V14.01,2013-08-01 04:27:00,
2013-07-31 21:32:00,78.1,28.3,29.70,NW,312,0.0,8.0,16,0.00,,---,0.00,VWS V14.01,2013-08-01 04:32:00,
2013-07-31 21:37:00,77.8,28.1,29.70,WNW,302,4.0,6.0,16,0.00,,---,0.00,VWS V14.01,2013-08-01 04:37:00,
2013-07-31 21:42:00,77.5,27.8,29.70,WNW,299,5.0,7.0,16,0.00,,---,0.00,VWS V14.01,2013-08-01 04:42:00,
2013-07-31 21:47:00,77.2,27.6,29.71,WNW,295,2.0,7.0,16,0.00,,---,0.00,VWS V14.01,2013-08-01 04:47:00,
2013-07-31 21:52:00,77.0,27.4,29.71,NNW,329,7.0,8.0,16,0.00,,---,0.00,VWS V14.01,2013-08-01 04:52:00,
2013-07-31 21:57:00,76.9,27.3,29.71,WNW,282,2.0,9.0,16,0.00,,---,0.00,VWS V14.01,2013-08-01 04:57:00,
2013-07-31 22:02:00,76.9,27.3,29.71,NNW,341,5.0,11.0,16,0.00,,---,0.00,VWS V14.01,2013-08-01 05:02:00,
2013-07-31 22:07:00,76.9,27.3,29.71,WNW,298,5.0,8.0,16,0.00,,---,0.00,VWS V14.01,2013-08-01 05:07:00,
2013-07-31 22:12:00,76.7,27.2,29.71,WNW,298,7.0,10.0,16,0.00,,---,0.00,VWS V14.01,2013-08-01 05:12:00,
2013-07-31 22:17:00,76.8,27.2,29.71,NNW,330,4.0,8.0,16,0.00,,---,0.00,VWS V14.01,2013-08-01 05:17:00,
2013-07-31 22:22:00,76.8,27.2,29.72,NW,304,8.0,12.0,16,0.00,,---,0.00,VWS V14.01,2013-08-01 05:22:00,
2013-07-31 22:27:00,77.2,27.6,29.72,NNW,338,7.0,11.0,16,0.00,,---,0.00,VWS V14.01,2013-08-01 05:27:00,
2013-07-31 22:32:00,77.0,27.4,29.72,NW,304,6.0,14.0,16,0.00,,---,0.00,VWS V14.01,2013-08-01 05:32:00,
2013-07-31 22:37:00,76.7,27.2,29.72,NW,313,5.0,11.0,16,0.00,,---,0.00,VWS V14.01,2013-08-01 05:37:00,
2013-07-31 22:42:00,76.5,28.5,29.72,West,267,10.0,11.0,17,0.00,,---,0.00,VWS V14.01,2013-08-01 05:42:00,
2013-07-31 22:47:00,76.3,28.3,29.72,WNW,294,4.0,15.0,17,0.00,,---,0.00,VWS V14.01,2013-08-01 05:47:00,
2013-07-31 22:52:00,76.0,29.5,29.72,NW,307,7.0,11.0,18,0.00,,---,0.00,VWS V14.01,2013-08-01 05:52:00,
2013-07-31 22:57:00,75.7,29.2,29.73,NW,309,7.0,11.0,18,0.00,,---,0.00,VWS V14.01,2013-08-01 05:57:00,
2013-07-31 23:02:00,75.3,30.2,29.73,NW,323,8.0,12.0,19,0.00,,---,0.00,VWS V14.01,2013-08-01 06:02:00,
2013-07-31 23:07:00,75.0,30.0,29.73,NNW,328,7.0,8.0,19,0.00,,---,0.00,VWS V14.01,2013-08-01 06:07:00,
2013-07-31 23:13:00,74.6,30.9,29.73,NW,323,3.0,7.0,20,0.00,,---,0.00,VWS V14.01,2013-08-01 06:13:00,
2013-07-31 23:18:00,73.8,31.5,29.73,NNW,329,2.0,7.0,21,0.00,,---,0.00,VWS V14.01,2013-08-01 06:18:00,
2013-07-31 23:22:00,73.5,32.4,29.73,WNW,298,5.0,7.0,22,0.00,,---,0.00,VWS V14.01,2013-08-01 06:22:00,
2013-07-31 23:27:00,73.5,32.4,29.73,NNW,334,5.0,8.0,22,0.00,,---,0.00,VWS V14.01,2013-08-01 06:27:00,
2013-07-31 23:32:00,73.5,32.4,29.73,NW,324,4.0,8.0,22,0.00,,---,0.00,VWS V14.01,2013-08-01 06:32:00,
2013-07-31 23:38:00,73.4,32.3,29.73,NW,318,5.0,8.0,22,0.00,,---,0.00,VWS V14.01,2013-08-01 06:38:00,
2013-07-31 23:43:00,73.0,32.0,29.73,NNW,327,6.0,7.0,22,0.00,,---,0.00,VWS V14.01,2013-08-01 06:43:00,
2013-07-31 23:48:00,72.7,32.8,29.73,NW,308,3.0,7.0,23,0.00,,---,0.00,VWS V14.01,2013-08-01 06:48:00,
2013-07-31 23:53:00,72.2,32.4,29.73,NNW,340,4.0,7.0,23,0.00,,---,0.00,VWS V14.01,2013-08-01 06:53:00,
2013-07-31 23:58:00,71.9,32.1,29.73,NW,306,4.0,6.0,23,0.00,,---,0.00,VWS V14.01,2013-08-01 06:58:00,